<?xml version="1.0" encoding="UTF-8" standalone="no" ?>
<gpx xmlns="http://www.topografix.com/GPX/1/1" xmlns:xsi="http://www.w3.org/2001/XMLSchema-instance" xsi:schemaLocation="http://www.topografix.com/GPX/1/1 http://www.topografix.com/GPX/1/1/gpx.xsd" version="1.1" creator="VisuGPX - https://www.visugpx.com">
  <metadata>
    <name>OMS CHENOVE Marche du vendredi 16 novembre 2012</name>
    <desc><![CDATA[DE Chamboeuf à Gevrey]]></desc>
  </metadata>
  <trk>
    <name><![CDATA[OMS CHENOVE Marche du vendredi 16 novembre 2012_1]]></name>
    <trkseg>
      <trkpt lat="47.23038" lon="4.90603">
        <ele>474.293</ele>
        <time>2012-11-16T09:38:06Z</time>
      </trkpt>
      <trkpt lat="47.23045" lon="4.90608">
        <ele>474.268</ele>
        <time>2012-11-16T09:38:17Z</time>
      </trkpt>
      <trkpt lat="47.23062" lon="4.9061">
        <ele>478.76</ele>
        <time>2012-11-16T09:38:28Z</time>
      </trkpt>
      <trkpt lat="47.23075" lon="4.90613">
        <ele>481.277</ele>
        <time>2012-11-16T09:38:39Z</time>
      </trkpt>
      <trkpt lat="47.23082" lon="4.90615">
        <ele>482.745</ele>
        <time>2012-11-16T09:38:50Z</time>
      </trkpt>
      <trkpt lat="47.23093" lon="4.90622">
        <ele>485.106</ele>
        <time>2012-11-16T09:39:01Z</time>
      </trkpt>
      <trkpt lat="47.23108" lon="4.9064">
        <ele>486.778</ele>
        <time>2012-11-16T09:39:12Z</time>
      </trkpt>
      <trkpt lat="47.23115" lon="4.90662">
        <ele>487.957</ele>
        <time>2012-11-16T09:39:23Z</time>
      </trkpt>
      <trkpt lat="47.23115" lon="4.90682">
        <ele>489.311</ele>
        <time>2012-11-16T09:39:34Z</time>
      </trkpt>
      <trkpt lat="47.23113" lon="4.90695">
        <ele>492.917</ele>
        <time>2012-11-16T09:39:45Z</time>
      </trkpt>
      <trkpt lat="47.23117" lon="4.90718">
        <ele>492.885</ele>
        <time>2012-11-16T09:39:56Z</time>
      </trkpt>
      <trkpt lat="47.23115" lon="4.90743">
        <ele>493.828</ele>
        <time>2012-11-16T09:40:07Z</time>
      </trkpt>
      <trkpt lat="47.23113" lon="4.90765">
        <ele>494.197</ele>
        <time>2012-11-16T09:40:18Z</time>
      </trkpt>
      <trkpt lat="47.23112" lon="4.9079">
        <ele>491.423</ele>
        <time>2012-11-16T09:40:29Z</time>
      </trkpt>
      <trkpt lat="47.2311" lon="4.90813">
        <ele>490.818</ele>
        <time>2012-11-16T09:40:40Z</time>
      </trkpt>
      <trkpt lat="47.23107" lon="4.90837">
        <ele>488.933</ele>
        <time>2012-11-16T09:40:51Z</time>
      </trkpt>
      <trkpt lat="47.23107" lon="4.9086">
        <ele>486.804</ele>
        <time>2012-11-16T09:41:02Z</time>
      </trkpt>
      <trkpt lat="47.23107" lon="4.90885">
        <ele>487.032</ele>
        <time>2012-11-16T09:41:13Z</time>
      </trkpt>
      <trkpt lat="47.23107" lon="4.90912">
        <ele>484.895</ele>
        <time>2012-11-16T09:41:24Z</time>
      </trkpt>
      <trkpt lat="47.23112" lon="4.90937">
        <ele>484.321</ele>
        <time>2012-11-16T09:41:35Z</time>
      </trkpt>
      <trkpt lat="47.23117" lon="4.90958">
        <ele>485.032</ele>
        <time>2012-11-16T09:41:46Z</time>
      </trkpt>
      <trkpt lat="47.23122" lon="4.90982">
        <ele>485.396</ele>
        <time>2012-11-16T09:41:57Z</time>
      </trkpt>
      <trkpt lat="47.2313" lon="4.91003">
        <ele>483.841</ele>
        <time>2012-11-16T09:42:08Z</time>
      </trkpt>
      <trkpt lat="47.23137" lon="4.91023">
        <ele>482.858</ele>
        <time>2012-11-16T09:42:19Z</time>
      </trkpt>
      <trkpt lat="47.23145" lon="4.91042">
        <ele>483.221</ele>
        <time>2012-11-16T09:42:30Z</time>
      </trkpt>
      <trkpt lat="47.23153" lon="4.9106">
        <ele>484.953</ele>
        <time>2012-11-16T09:42:41Z</time>
      </trkpt>
      <trkpt lat="47.23162" lon="4.9108">
        <ele>484.561</ele>
        <time>2012-11-16T09:42:52Z</time>
      </trkpt>
      <trkpt lat="47.2317" lon="4.911">
        <ele>486.337</ele>
        <time>2012-11-16T09:43:03Z</time>
      </trkpt>
      <trkpt lat="47.2318" lon="4.91118">
        <ele>486.526</ele>
        <time>2012-11-16T09:43:14Z</time>
      </trkpt>
      <trkpt lat="47.23188" lon="4.9114">
        <ele>486.549</ele>
        <time>2012-11-16T09:43:25Z</time>
      </trkpt>
      <trkpt lat="47.23195" lon="4.91157">
        <ele>488.137</ele>
        <time>2012-11-16T09:43:36Z</time>
      </trkpt>
      <trkpt lat="47.23202" lon="4.91175">
        <ele>488.471</ele>
        <time>2012-11-16T09:43:47Z</time>
      </trkpt>
      <trkpt lat="47.2321" lon="4.91193">
        <ele>488.735</ele>
        <time>2012-11-16T09:43:58Z</time>
      </trkpt>
      <trkpt lat="47.23218" lon="4.91213">
        <ele>487.899</ele>
        <time>2012-11-16T09:44:09Z</time>
      </trkpt>
      <trkpt lat="47.23228" lon="4.91235">
        <ele>488.125</ele>
        <time>2012-11-16T09:44:20Z</time>
      </trkpt>
      <trkpt lat="47.23238" lon="4.91258">
        <ele>487.346</ele>
        <time>2012-11-16T09:44:31Z</time>
      </trkpt>
      <trkpt lat="47.2325" lon="4.91278">
        <ele>485.915</ele>
        <time>2012-11-16T09:44:42Z</time>
      </trkpt>
      <trkpt lat="47.23262" lon="4.91295">
        <ele>485.092</ele>
        <time>2012-11-16T09:44:53Z</time>
      </trkpt>
      <trkpt lat="47.23277" lon="4.91308">
        <ele>487.504</ele>
        <time>2012-11-16T09:45:04Z</time>
      </trkpt>
      <trkpt lat="47.23288" lon="4.91322">
        <ele>486.06</ele>
        <time>2012-11-16T09:45:15Z</time>
      </trkpt>
      <trkpt lat="47.23302" lon="4.91335">
        <ele>484.316</ele>
        <time>2012-11-16T09:45:26Z</time>
      </trkpt>
      <trkpt lat="47.23315" lon="4.91352">
        <ele>484.649</ele>
        <time>2012-11-16T09:45:37Z</time>
      </trkpt>
      <trkpt lat="47.23327" lon="4.91372">
        <ele>482.374</ele>
        <time>2012-11-16T09:45:48Z</time>
      </trkpt>
      <trkpt lat="47.23338" lon="4.91387">
        <ele>483.552</ele>
        <time>2012-11-16T09:45:59Z</time>
      </trkpt>
      <trkpt lat="47.23352" lon="4.91408">
        <ele>484.048</ele>
        <time>2012-11-16T09:46:10Z</time>
      </trkpt>
      <trkpt lat="47.23362" lon="4.91432">
        <ele>484.299</ele>
        <time>2012-11-16T09:46:21Z</time>
      </trkpt>
      <trkpt lat="47.23367" lon="4.91455">
        <ele>484.503</ele>
        <time>2012-11-16T09:46:32Z</time>
      </trkpt>
      <trkpt lat="47.23375" lon="4.91475">
        <ele>484.713</ele>
        <time>2012-11-16T09:46:43Z</time>
      </trkpt>
      <trkpt lat="47.23382" lon="4.91498">
        <ele>483.448</ele>
        <time>2012-11-16T09:46:54Z</time>
      </trkpt>
      <trkpt lat="47.23392" lon="4.91517">
        <ele>484.384</ele>
        <time>2012-11-16T09:47:05Z</time>
      </trkpt>
      <trkpt lat="47.23397" lon="4.91535">
        <ele>483.889</ele>
        <time>2012-11-16T09:47:16Z</time>
      </trkpt>
      <trkpt lat="47.23405" lon="4.91553">
        <ele>482.902</ele>
        <time>2012-11-16T09:47:27Z</time>
      </trkpt>
      <trkpt lat="47.23412" lon="4.9157">
        <ele>481.642</ele>
        <time>2012-11-16T09:47:38Z</time>
      </trkpt>
      <trkpt lat="47.23425" lon="4.91578">
        <ele>480.517</ele>
        <time>2012-11-16T09:47:49Z</time>
      </trkpt>
      <trkpt lat="47.23433" lon="4.91592">
        <ele>480.816</ele>
        <time>2012-11-16T09:48:00Z</time>
      </trkpt>
      <trkpt lat="47.23442" lon="4.91608">
        <ele>481.103</ele>
        <time>2012-11-16T09:48:11Z</time>
      </trkpt>
      <trkpt lat="47.23452" lon="4.9163">
        <ele>481.536</ele>
        <time>2012-11-16T09:48:22Z</time>
      </trkpt>
      <trkpt lat="47.2346" lon="4.91645">
        <ele>480.456</ele>
        <time>2012-11-16T09:48:33Z</time>
      </trkpt>
      <trkpt lat="47.23467" lon="4.91653">
        <ele>480.155</ele>
        <time>2012-11-16T09:48:44Z</time>
      </trkpt>
      <trkpt lat="47.23468" lon="4.91662">
        <ele>480.452</ele>
        <time>2012-11-16T09:48:55Z</time>
      </trkpt>
      <trkpt lat="47.23475" lon="4.91672">
        <ele>482.175</ele>
        <time>2012-11-16T09:49:06Z</time>
      </trkpt>
      <trkpt lat="47.23477" lon="4.91692">
        <ele>483.399</ele>
        <time>2012-11-16T09:49:17Z</time>
      </trkpt>
      <trkpt lat="47.23482" lon="4.91713">
        <ele>485.63</ele>
        <time>2012-11-16T09:49:28Z</time>
      </trkpt>
      <trkpt lat="47.23487" lon="4.9173">
        <ele>485.585</ele>
        <time>2012-11-16T09:49:39Z</time>
      </trkpt>
      <trkpt lat="47.23488" lon="4.91753">
        <ele>484.524</ele>
        <time>2012-11-16T09:49:50Z</time>
      </trkpt>
      <trkpt lat="47.23485" lon="4.91767">
        <ele>485.619</ele>
        <time>2012-11-16T09:50:01Z</time>
      </trkpt>
      <trkpt lat="47.2348" lon="4.91788">
        <ele>489.476</ele>
        <time>2012-11-16T09:50:12Z</time>
      </trkpt>
      <trkpt lat="47.23477" lon="4.91803">
        <ele>489.235</ele>
        <time>2012-11-16T09:50:23Z</time>
      </trkpt>
      <trkpt lat="47.23473" lon="4.91813">
        <ele>490.028</ele>
        <time>2012-11-16T09:50:34Z</time>
      </trkpt>
      <trkpt lat="47.2347" lon="4.91827">
        <ele>489.422</ele>
        <time>2012-11-16T09:50:45Z</time>
      </trkpt>
      <trkpt lat="47.23457" lon="4.91842">
        <ele>491.314</ele>
        <time>2012-11-16T09:50:56Z</time>
      </trkpt>
      <trkpt lat="47.23445" lon="4.91853">
        <ele>492.695</ele>
        <time>2012-11-16T09:51:07Z</time>
      </trkpt>
      <trkpt lat="47.23435" lon="4.91875">
        <ele>491.027</ele>
        <time>2012-11-16T09:51:18Z</time>
      </trkpt>
      <trkpt lat="47.23428" lon="4.9189">
        <ele>487.125</ele>
        <time>2012-11-16T09:51:29Z</time>
      </trkpt>
      <trkpt lat="47.23428" lon="4.91898">
        <ele>491.052</ele>
        <time>2012-11-16T09:51:40Z</time>
      </trkpt>
      <trkpt lat="47.23417" lon="4.91912">
        <ele>492.216</ele>
        <time>2012-11-16T09:51:51Z</time>
      </trkpt>
      <trkpt lat="47.23412" lon="4.91933">
        <ele>495.823</ele>
        <time>2012-11-16T09:52:02Z</time>
      </trkpt>
      <trkpt lat="47.2341" lon="4.9195">
        <ele>495.339</ele>
        <time>2012-11-16T09:52:13Z</time>
      </trkpt>
      <trkpt lat="47.234" lon="4.9198">
        <ele>497.787</ele>
        <time>2012-11-16T09:52:24Z</time>
      </trkpt>
      <trkpt lat="47.23393" lon="4.91995">
        <ele>497.396</ele>
        <time>2012-11-16T09:52:35Z</time>
      </trkpt>
      <trkpt lat="47.2339" lon="4.92025">
        <ele>493.608</ele>
        <time>2012-11-16T09:52:46Z</time>
      </trkpt>
      <trkpt lat="47.23383" lon="4.92035">
        <ele>494.463</ele>
        <time>2012-11-16T09:52:57Z</time>
      </trkpt>
      <trkpt lat="47.23377" lon="4.92047">
        <ele>497.404</ele>
        <time>2012-11-16T09:53:08Z</time>
      </trkpt>
      <trkpt lat="47.23363" lon="4.92063">
        <ele>500.006</ele>
        <time>2012-11-16T09:53:19Z</time>
      </trkpt>
      <trkpt lat="47.23362" lon="4.92065">
        <ele>500.524</ele>
        <time>2012-11-16T09:53:30Z</time>
      </trkpt>
      <trkpt lat="47.23358" lon="4.92067">
        <ele>501.354</ele>
        <time>2012-11-16T09:53:41Z</time>
      </trkpt>
      <trkpt lat="47.23353" lon="4.92072">
        <ele>503.072</ele>
        <time>2012-11-16T09:53:52Z</time>
      </trkpt>
      <trkpt lat="47.2335" lon="4.9208">
        <ele>504.67</ele>
        <time>2012-11-16T09:54:03Z</time>
      </trkpt>
      <trkpt lat="47.2334" lon="4.92093">
        <ele>502.757</ele>
        <time>2012-11-16T09:54:14Z</time>
      </trkpt>
      <trkpt lat="47.23338" lon="4.921">
        <ele>501.074</ele>
        <time>2012-11-16T09:54:25Z</time>
      </trkpt>
      <trkpt lat="47.23333" lon="4.92103">
        <ele>502.073</ele>
        <time>2012-11-16T09:54:36Z</time>
      </trkpt>
      <trkpt lat="47.23328" lon="4.92108">
        <ele>504.651</ele>
        <time>2012-11-16T09:54:47Z</time>
      </trkpt>
      <trkpt lat="47.23315" lon="4.92117">
        <ele>500.857</ele>
        <time>2012-11-16T09:54:58Z</time>
      </trkpt>
      <trkpt lat="47.23305" lon="4.9212">
        <ele>500.877</ele>
        <time>2012-11-16T09:55:09Z</time>
      </trkpt>
      <trkpt lat="47.23298" lon="4.92123">
        <ele>499.93</ele>
        <time>2012-11-16T09:55:20Z</time>
      </trkpt>
      <trkpt lat="47.23288" lon="4.92128">
        <ele>506.104</ele>
        <time>2012-11-16T09:55:31Z</time>
      </trkpt>
      <trkpt lat="47.23267" lon="4.92137">
        <ele>510.557</ele>
        <time>2012-11-16T09:55:42Z</time>
      </trkpt>
      <trkpt lat="47.23265" lon="4.9214">
        <ele>510.33</ele>
        <time>2012-11-16T09:55:53Z</time>
      </trkpt>
      <trkpt lat="47.23255" lon="4.92145">
        <ele>513.507</ele>
        <time>2012-11-16T09:56:04Z</time>
      </trkpt>
      <trkpt lat="47.23252" lon="4.92148">
        <ele>515.998</ele>
        <time>2012-11-16T09:56:15Z</time>
      </trkpt>
      <trkpt lat="47.23235" lon="4.92162">
        <ele>523.345</ele>
        <time>2012-11-16T09:56:26Z</time>
      </trkpt>
      <trkpt lat="47.23225" lon="4.9217">
        <ele>527.835</ele>
        <time>2012-11-16T09:56:37Z</time>
      </trkpt>
      <trkpt lat="47.23217" lon="4.92178">
        <ele>530.158</ele>
        <time>2012-11-16T09:56:48Z</time>
      </trkpt>
      <trkpt lat="47.23208" lon="4.92187">
        <ele>533.039</ele>
        <time>2012-11-16T09:56:59Z</time>
      </trkpt>
      <trkpt lat="47.23202" lon="4.92195">
        <ele>536.067</ele>
        <time>2012-11-16T09:57:10Z</time>
      </trkpt>
      <trkpt lat="47.23198" lon="4.92198">
        <ele>535.939</ele>
        <time>2012-11-16T09:57:21Z</time>
      </trkpt>
      <trkpt lat="47.23198" lon="4.92198">
        <ele>535.939</ele>
        <time>2012-11-16T09:57:32Z</time>
      </trkpt>
      <trkpt lat="47.23197" lon="4.92203">
        <ele>538.628</ele>
        <time>2012-11-16T09:57:43Z</time>
      </trkpt>
      <trkpt lat="47.23193" lon="4.92213">
        <ele>534.526</ele>
        <time>2012-11-16T09:57:54Z</time>
      </trkpt>
      <trkpt lat="47.23187" lon="4.92222">
        <ele>535.119</ele>
        <time>2012-11-16T09:58:05Z</time>
      </trkpt>
      <trkpt lat="47.23178" lon="4.92235">
        <ele>536.337</ele>
        <time>2012-11-16T09:58:16Z</time>
      </trkpt>
      <trkpt lat="47.23178" lon="4.92237">
        <ele>536.468</ele>
        <time>2012-11-16T09:58:27Z</time>
      </trkpt>
      <trkpt lat="47.23177" lon="4.92238">
        <ele>535.744</ele>
        <time>2012-11-16T09:58:38Z</time>
      </trkpt>
      <trkpt lat="47.23177" lon="4.92238">
        <ele>536.481</ele>
        <time>2012-11-16T09:58:49Z</time>
      </trkpt>
      <trkpt lat="47.23177" lon="4.92238">
        <ele>536.481</ele>
        <time>2012-11-16T09:59:00Z</time>
      </trkpt>
      <trkpt lat="47.23167" lon="4.92238">
        <ele>538.289</ele>
        <time>2012-11-16T09:59:11Z</time>
      </trkpt>
      <trkpt lat="47.23165" lon="4.92238">
        <ele>537.899</ele>
        <time>2012-11-16T09:59:22Z</time>
      </trkpt>
      <trkpt lat="47.23165" lon="4.92238">
        <ele>537.899</ele>
        <time>2012-11-16T09:59:33Z</time>
      </trkpt>
      <trkpt lat="47.23162" lon="4.92243">
        <ele>538.034</ele>
        <time>2012-11-16T09:59:44Z</time>
      </trkpt>
      <trkpt lat="47.23157" lon="4.92262">
        <ele>536.964</ele>
        <time>2012-11-16T09:59:55Z</time>
      </trkpt>
      <trkpt lat="47.23153" lon="4.92285">
        <ele>528.736</ele>
        <time>2012-11-16T10:00:06Z</time>
      </trkpt>
      <trkpt lat="47.23147" lon="4.9231">
        <ele>521.924</ele>
        <time>2012-11-16T10:00:17Z</time>
      </trkpt>
      <trkpt lat="47.23145" lon="4.92318">
        <ele>522.973</ele>
        <time>2012-11-16T10:00:28Z</time>
      </trkpt>
      <trkpt lat="47.2314" lon="4.92328">
        <ele>523.886</ele>
        <time>2012-11-16T10:00:39Z</time>
      </trkpt>
      <trkpt lat="47.23132" lon="4.9235">
        <ele>518.843</ele>
        <time>2012-11-16T10:00:50Z</time>
      </trkpt>
      <trkpt lat="47.23127" lon="4.9237">
        <ele>516.602</ele>
        <time>2012-11-16T10:01:01Z</time>
      </trkpt>
      <trkpt lat="47.23127" lon="4.9239">
        <ele>517.933</ele>
        <time>2012-11-16T10:01:12Z</time>
      </trkpt>
      <trkpt lat="47.23122" lon="4.9241">
        <ele>514.734</ele>
        <time>2012-11-16T10:01:23Z</time>
      </trkpt>
      <trkpt lat="47.2312" lon="4.92425">
        <ele>517.543</ele>
        <time>2012-11-16T10:01:34Z</time>
      </trkpt>
      <trkpt lat="47.23118" lon="4.92438">
        <ele>519.905</ele>
        <time>2012-11-16T10:01:45Z</time>
      </trkpt>
      <trkpt lat="47.23117" lon="4.92448">
        <ele>519.512</ele>
        <time>2012-11-16T10:01:56Z</time>
      </trkpt>
      <trkpt lat="47.23115" lon="4.92463">
        <ele>521.393</ele>
        <time>2012-11-16T10:02:07Z</time>
      </trkpt>
      <trkpt lat="47.23112" lon="4.92477">
        <ele>519.446</ele>
        <time>2012-11-16T10:02:18Z</time>
      </trkpt>
      <trkpt lat="47.2311" lon="4.92485">
        <ele>520.274</ele>
        <time>2012-11-16T10:02:29Z</time>
      </trkpt>
      <trkpt lat="47.23108" lon="4.92507">
        <ele>522.27</ele>
        <time>2012-11-16T10:02:40Z</time>
      </trkpt>
      <trkpt lat="47.23107" lon="4.92527">
        <ele>523.969</ele>
        <time>2012-11-16T10:02:51Z</time>
      </trkpt>
      <trkpt lat="47.23107" lon="4.92532">
        <ele>524.21</ele>
        <time>2012-11-16T10:03:02Z</time>
      </trkpt>
      <trkpt lat="47.23107" lon="4.92538">
        <ele>525.229</ele>
        <time>2012-11-16T10:03:13Z</time>
      </trkpt>
      <trkpt lat="47.23107" lon="4.92543">
        <ele>524.604</ele>
        <time>2012-11-16T10:03:24Z</time>
      </trkpt>
      <trkpt lat="47.23102" lon="4.92543">
        <ele>523.919</ele>
        <time>2012-11-16T10:03:35Z</time>
      </trkpt>
      <trkpt lat="47.23095" lon="4.92552">
        <ele>525.89</ele>
        <time>2012-11-16T10:03:46Z</time>
      </trkpt>
      <trkpt lat="47.23093" lon="4.92557">
        <ele>525.515</ele>
        <time>2012-11-16T10:03:57Z</time>
      </trkpt>
      <trkpt lat="47.2309" lon="4.92563">
        <ele>526.836</ele>
        <time>2012-11-16T10:04:08Z</time>
      </trkpt>
      <trkpt lat="47.23085" lon="4.92577">
        <ele>524.284</ele>
        <time>2012-11-16T10:04:19Z</time>
      </trkpt>
      <trkpt lat="47.23077" lon="4.92595">
        <ele>524.278</ele>
        <time>2012-11-16T10:04:30Z</time>
      </trkpt>
      <trkpt lat="47.23062" lon="4.92617">
        <ele>525.322</ele>
        <time>2012-11-16T10:04:41Z</time>
      </trkpt>
      <trkpt lat="47.23047" lon="4.9264">
        <ele>526.692</ele>
        <time>2012-11-16T10:04:52Z</time>
      </trkpt>
      <trkpt lat="47.23027" lon="4.92662">
        <ele>521.81</ele>
        <time>2012-11-16T10:05:03Z</time>
      </trkpt>
      <trkpt lat="47.23015" lon="4.92678">
        <ele>517.829</ele>
        <time>2012-11-16T10:05:14Z</time>
      </trkpt>
      <trkpt lat="47.2301" lon="4.92685">
        <ele>515.068</ele>
        <time>2012-11-16T10:05:25Z</time>
      </trkpt>
      <trkpt lat="47.2301" lon="4.92688">
        <ele>514.32</ele>
        <time>2012-11-16T10:05:36Z</time>
      </trkpt>
      <trkpt lat="47.23003" lon="4.92698">
        <ele>510.401</ele>
        <time>2012-11-16T10:05:47Z</time>
      </trkpt>
      <trkpt lat="47.23" lon="4.92703">
        <ele>512.33</ele>
        <time>2012-11-16T10:05:58Z</time>
      </trkpt>
      <trkpt lat="47.2299" lon="4.92713">
        <ele>514.92</ele>
        <time>2012-11-16T10:06:09Z</time>
      </trkpt>
      <trkpt lat="47.22977" lon="4.92718">
        <ele>516.225</ele>
        <time>2012-11-16T10:06:20Z</time>
      </trkpt>
      <trkpt lat="47.22965" lon="4.92727">
        <ele>518.976</ele>
        <time>2012-11-16T10:06:31Z</time>
      </trkpt>
      <trkpt lat="47.22958" lon="4.92732">
        <ele>517.076</ele>
        <time>2012-11-16T10:06:42Z</time>
      </trkpt>
      <trkpt lat="47.22948" lon="4.92738">
        <ele>517.037</ele>
        <time>2012-11-16T10:06:53Z</time>
      </trkpt>
      <trkpt lat="47.22945" lon="4.92742">
        <ele>516.045</ele>
        <time>2012-11-16T10:07:04Z</time>
      </trkpt>
      <trkpt lat="47.22935" lon="4.92745">
        <ele>515.426</ele>
        <time>2012-11-16T10:07:15Z</time>
      </trkpt>
      <trkpt lat="47.22928" lon="4.92748">
        <ele>515.404</ele>
        <time>2012-11-16T10:07:26Z</time>
      </trkpt>
      <trkpt lat="47.22908" lon="4.92752">
        <ele>516.618</ele>
        <time>2012-11-16T10:07:37Z</time>
      </trkpt>
      <trkpt lat="47.22882" lon="4.92758">
        <ele>517.89</ele>
        <time>2012-11-16T10:07:48Z</time>
      </trkpt>
      <trkpt lat="47.2286" lon="4.92762">
        <ele>518.091</ele>
        <time>2012-11-16T10:07:59Z</time>
      </trkpt>
      <trkpt lat="47.22837" lon="4.92772">
        <ele>516.853</ele>
        <time>2012-11-16T10:08:10Z</time>
      </trkpt>
      <trkpt lat="47.22813" lon="4.92785">
        <ele>511.789</ele>
        <time>2012-11-16T10:08:21Z</time>
      </trkpt>
      <trkpt lat="47.22803" lon="4.9279">
        <ele>509.283</ele>
        <time>2012-11-16T10:08:32Z</time>
      </trkpt>
      <trkpt lat="47.22773" lon="4.92798">
        <ele>507.986</ele>
        <time>2012-11-16T10:08:43Z</time>
      </trkpt>
      <trkpt lat="47.22735" lon="4.92808">
        <ele>507.006</ele>
        <time>2012-11-16T10:08:54Z</time>
      </trkpt>
      <trkpt lat="47.2271" lon="4.9282">
        <ele>509.84</ele>
        <time>2012-11-16T10:09:05Z</time>
      </trkpt>
      <trkpt lat="47.22698" lon="4.92825">
        <ele>508.341</ele>
        <time>2012-11-16T10:09:16Z</time>
      </trkpt>
      <trkpt lat="47.2268" lon="4.92838">
        <ele>505.531</ele>
        <time>2012-11-16T10:09:27Z</time>
      </trkpt>
      <trkpt lat="47.2267" lon="4.92848">
        <ele>502.21</ele>
        <time>2012-11-16T10:09:38Z</time>
      </trkpt>
      <trkpt lat="47.22667" lon="4.92852">
        <ele>501.724</ele>
        <time>2012-11-16T10:09:49Z</time>
      </trkpt>
      <trkpt lat="47.22663" lon="4.9286">
        <ele>497.986</ele>
        <time>2012-11-16T10:10:00Z</time>
      </trkpt>
      <trkpt lat="47.22655" lon="4.92868">
        <ele>494.65</ele>
        <time>2012-11-16T10:10:11Z</time>
      </trkpt>
      <trkpt lat="47.2265" lon="4.92872">
        <ele>494.359</ele>
        <time>2012-11-16T10:10:22Z</time>
      </trkpt>
      <trkpt lat="47.22623" lon="4.92882">
        <ele>495.893</ele>
        <time>2012-11-16T10:10:33Z</time>
      </trkpt>
      <trkpt lat="47.22602" lon="4.92893">
        <ele>495.036</ele>
        <time>2012-11-16T10:10:44Z</time>
      </trkpt>
      <trkpt lat="47.22578" lon="4.92902">
        <ele>494.905</ele>
        <time>2012-11-16T10:10:55Z</time>
      </trkpt>
      <trkpt lat="47.22558" lon="4.92908">
        <ele>487.436</ele>
        <time>2012-11-16T10:11:06Z</time>
      </trkpt>
      <trkpt lat="47.22545" lon="4.92908">
        <ele>481.042</ele>
        <time>2012-11-16T10:11:17Z</time>
      </trkpt>
      <trkpt lat="47.22542" lon="4.9291">
        <ele>479.497</ele>
        <time>2012-11-16T10:11:28Z</time>
      </trkpt>
      <trkpt lat="47.22535" lon="4.92912">
        <ele>479.747</ele>
        <time>2012-11-16T10:11:39Z</time>
      </trkpt>
      <trkpt lat="47.22523" lon="4.9291">
        <ele>481.341</ele>
        <time>2012-11-16T10:11:50Z</time>
      </trkpt>
      <trkpt lat="47.22508" lon="4.92908">
        <ele>481.094</ele>
        <time>2012-11-16T10:12:01Z</time>
      </trkpt>
      <trkpt lat="47.22483" lon="4.92897">
        <ele>476.824</ele>
        <time>2012-11-16T10:12:12Z</time>
      </trkpt>
      <trkpt lat="47.22477" lon="4.92895">
        <ele>475.522</ele>
        <time>2012-11-16T10:12:23Z</time>
      </trkpt>
      <trkpt lat="47.22467" lon="4.9289">
        <ele>473.38</ele>
        <time>2012-11-16T10:12:34Z</time>
      </trkpt>
      <trkpt lat="47.22455" lon="4.9288">
        <ele>468.977</ele>
        <time>2012-11-16T10:12:45Z</time>
      </trkpt>
      <trkpt lat="47.22447" lon="4.9287">
        <ele>468.744</ele>
        <time>2012-11-16T10:12:56Z</time>
      </trkpt>
      <trkpt lat="47.22428" lon="4.92835">
        <ele>451.995</ele>
        <time>2012-11-16T10:13:07Z</time>
      </trkpt>
      <trkpt lat="47.22415" lon="4.92802">
        <ele>443.97</ele>
        <time>2012-11-16T10:13:18Z</time>
      </trkpt>
      <trkpt lat="47.2241" lon="4.92778">
        <ele>442.514</ele>
        <time>2012-11-16T10:13:29Z</time>
      </trkpt>
      <trkpt lat="47.2241" lon="4.92758">
        <ele>444.029</ele>
        <time>2012-11-16T10:13:40Z</time>
      </trkpt>
      <trkpt lat="47.22408" lon="4.92747">
        <ele>443.728</ele>
        <time>2012-11-16T10:13:51Z</time>
      </trkpt>
      <trkpt lat="47.2241" lon="4.92725">
        <ele>443.725</ele>
        <time>2012-11-16T10:14:02Z</time>
      </trkpt>
      <trkpt lat="47.22413" lon="4.92717">
        <ele>442.562</ele>
        <time>2012-11-16T10:14:13Z</time>
      </trkpt>
      <trkpt lat="47.22412" lon="4.92707">
        <ele>443.46</ele>
        <time>2012-11-16T10:14:24Z</time>
      </trkpt>
      <trkpt lat="47.22413" lon="4.927">
        <ele>441.791</ele>
        <time>2012-11-16T10:14:35Z</time>
      </trkpt>
      <trkpt lat="47.22412" lon="4.92695">
        <ele>440.493</ele>
        <time>2012-11-16T10:14:46Z</time>
      </trkpt>
      <trkpt lat="47.22412" lon="4.92688">
        <ele>440.337</ele>
        <time>2012-11-16T10:14:57Z</time>
      </trkpt>
      <trkpt lat="47.22415" lon="4.92672">
        <ele>439.275</ele>
        <time>2012-11-16T10:15:08Z</time>
      </trkpt>
      <trkpt lat="47.22415" lon="4.92657">
        <ele>440.702</ele>
        <time>2012-11-16T10:15:19Z</time>
      </trkpt>
      <trkpt lat="47.22418" lon="4.92645">
        <ele>437.718</ele>
        <time>2012-11-16T10:15:30Z</time>
      </trkpt>
      <trkpt lat="47.22422" lon="4.9264">
        <ele>436.136</ele>
        <time>2012-11-16T10:15:41Z</time>
      </trkpt>
      <trkpt lat="47.22418" lon="4.92635">
        <ele>436.07</ele>
        <time>2012-11-16T10:15:52Z</time>
      </trkpt>
      <trkpt lat="47.22417" lon="4.92635">
        <ele>436.678</ele>
        <time>2012-11-16T10:16:03Z</time>
      </trkpt>
      <trkpt lat="47.2241" lon="4.92637">
        <ele>438.015</ele>
        <time>2012-11-16T10:16:14Z</time>
      </trkpt>
      <trkpt lat="47.2241" lon="4.92637">
        <ele>438.015</ele>
        <time>2012-11-16T10:16:25Z</time>
      </trkpt>
      <trkpt lat="47.2241" lon="4.92637">
        <ele>438.015</ele>
        <time>2012-11-16T10:16:36Z</time>
      </trkpt>
      <trkpt lat="47.2241" lon="4.92637">
        <ele>437.709</ele>
        <time>2012-11-16T10:16:47Z</time>
      </trkpt>
      <trkpt lat="47.2241" lon="4.92637">
        <ele>437.709</ele>
        <time>2012-11-16T10:16:58Z</time>
      </trkpt>
      <trkpt lat="47.2241" lon="4.92637">
        <ele>437.709</ele>
        <time>2012-11-16T10:17:09Z</time>
      </trkpt>
      <trkpt lat="47.2241" lon="4.92637">
        <ele>437.709</ele>
        <time>2012-11-16T10:17:20Z</time>
      </trkpt>
      <trkpt lat="47.2241" lon="4.92637">
        <ele>437.709</ele>
        <time>2012-11-16T10:17:31Z</time>
      </trkpt>
      <trkpt lat="47.22408" lon="4.92637">
        <ele>437.013</ele>
        <time>2012-11-16T10:17:42Z</time>
      </trkpt>
      <trkpt lat="47.22408" lon="4.92637">
        <ele>437.013</ele>
        <time>2012-11-16T10:17:53Z</time>
      </trkpt>
      <trkpt lat="47.22408" lon="4.92637">
        <ele>437.013</ele>
        <time>2012-11-16T10:18:04Z</time>
      </trkpt>
      <trkpt lat="47.22405" lon="4.92635">
        <ele>436.502</ele>
        <time>2012-11-16T10:18:15Z</time>
      </trkpt>
      <trkpt lat="47.22402" lon="4.92635">
        <ele>436.304</ele>
        <time>2012-11-16T10:18:26Z</time>
      </trkpt>
      <trkpt lat="47.22402" lon="4.92635">
        <ele>435.617</ele>
        <time>2012-11-16T10:18:37Z</time>
      </trkpt>
      <trkpt lat="47.22397" lon="4.92638">
        <ele>433.051</ele>
        <time>2012-11-16T10:18:48Z</time>
      </trkpt>
      <trkpt lat="47.22388" lon="4.92638">
        <ele>430.869</ele>
        <time>2012-11-16T10:18:59Z</time>
      </trkpt>
      <trkpt lat="47.22385" lon="4.92645">
        <ele>429.719</ele>
        <time>2012-11-16T10:19:10Z</time>
      </trkpt>
      <trkpt lat="47.22385" lon="4.92648">
        <ele>430.732</ele>
        <time>2012-11-16T10:19:21Z</time>
      </trkpt>
      <trkpt lat="47.22377" lon="4.92652">
        <ele>432.531</ele>
        <time>2012-11-16T10:19:32Z</time>
      </trkpt>
      <trkpt lat="47.22362" lon="4.9266">
        <ele>438.24</ele>
        <time>2012-11-16T10:19:43Z</time>
      </trkpt>
      <trkpt lat="47.2235" lon="4.92667">
        <ele>440.54</ele>
        <time>2012-11-16T10:19:54Z</time>
      </trkpt>
      <trkpt lat="47.2234" lon="4.92675">
        <ele>444.341</ele>
        <time>2012-11-16T10:20:05Z</time>
      </trkpt>
      <trkpt lat="47.2233" lon="4.92683">
        <ele>447.09</ele>
        <time>2012-11-16T10:20:16Z</time>
      </trkpt>
      <trkpt lat="47.22322" lon="4.92692">
        <ele>448.544</ele>
        <time>2012-11-16T10:20:27Z</time>
      </trkpt>
      <trkpt lat="47.22317" lon="4.92702">
        <ele>450.685</ele>
        <time>2012-11-16T10:20:38Z</time>
      </trkpt>
      <trkpt lat="47.22307" lon="4.92722">
        <ele>455.273</ele>
        <time>2012-11-16T10:20:49Z</time>
      </trkpt>
      <trkpt lat="47.223" lon="4.92735">
        <ele>456.466</ele>
        <time>2012-11-16T10:21:00Z</time>
      </trkpt>
      <trkpt lat="47.22298" lon="4.92748">
        <ele>456.504</ele>
        <time>2012-11-16T10:21:11Z</time>
      </trkpt>
      <trkpt lat="47.22293" lon="4.92767">
        <ele>458.009</ele>
        <time>2012-11-16T10:21:22Z</time>
      </trkpt>
      <trkpt lat="47.22283" lon="4.92785">
        <ele>458.843</ele>
        <time>2012-11-16T10:21:33Z</time>
      </trkpt>
      <trkpt lat="47.22282" lon="4.92798">
        <ele>458.375</ele>
        <time>2012-11-16T10:21:44Z</time>
      </trkpt>
      <trkpt lat="47.22272" lon="4.92815">
        <ele>459.106</ele>
        <time>2012-11-16T10:21:55Z</time>
      </trkpt>
      <trkpt lat="47.22277" lon="4.9283">
        <ele>459.543</ele>
        <time>2012-11-16T10:22:06Z</time>
      </trkpt>
      <trkpt lat="47.22277" lon="4.9283">
        <ele>459.543</ele>
        <time>2012-11-16T10:22:17Z</time>
      </trkpt>
      <trkpt lat="47.22275" lon="4.92842">
        <ele>460.891</ele>
        <time>2012-11-16T10:22:28Z</time>
      </trkpt>
      <trkpt lat="47.22272" lon="4.92862">
        <ele>460.243</ele>
        <time>2012-11-16T10:22:39Z</time>
      </trkpt>
      <trkpt lat="47.22263" lon="4.92875">
        <ele>457.541</ele>
        <time>2012-11-16T10:22:50Z</time>
      </trkpt>
      <trkpt lat="47.2226" lon="4.929">
        <ele>453.621</ele>
        <time>2012-11-16T10:23:01Z</time>
      </trkpt>
      <trkpt lat="47.22263" lon="4.92927">
        <ele>449.709</ele>
        <time>2012-11-16T10:23:12Z</time>
      </trkpt>
      <trkpt lat="47.22257" lon="4.9294">
        <ele>448.508</ele>
        <time>2012-11-16T10:23:23Z</time>
      </trkpt>
      <trkpt lat="47.22253" lon="4.92952">
        <ele>449.087</ele>
        <time>2012-11-16T10:23:34Z</time>
      </trkpt>
      <trkpt lat="47.22243" lon="4.92968">
        <ele>452.524</ele>
        <time>2012-11-16T10:23:45Z</time>
      </trkpt>
      <trkpt lat="47.22232" lon="4.9298">
        <ele>455.836</ele>
        <time>2012-11-16T10:23:56Z</time>
      </trkpt>
      <trkpt lat="47.22228" lon="4.92983">
        <ele>456.739</ele>
        <time>2012-11-16T10:24:07Z</time>
      </trkpt>
      <trkpt lat="47.22227" lon="4.92987">
        <ele>456.666</ele>
        <time>2012-11-16T10:24:18Z</time>
      </trkpt>
      <trkpt lat="47.22227" lon="4.9299">
        <ele>456.564</ele>
        <time>2012-11-16T10:24:29Z</time>
      </trkpt>
      <trkpt lat="47.22222" lon="4.93">
        <ele>459.785</ele>
        <time>2012-11-16T10:24:40Z</time>
      </trkpt>
      <trkpt lat="47.22218" lon="4.93015">
        <ele>461.907</ele>
        <time>2012-11-16T10:24:51Z</time>
      </trkpt>
      <trkpt lat="47.22215" lon="4.93025">
        <ele>463.662</ele>
        <time>2012-11-16T10:25:02Z</time>
      </trkpt>
      <trkpt lat="47.22208" lon="4.93037">
        <ele>462.896</ele>
        <time>2012-11-16T10:25:13Z</time>
      </trkpt>
      <trkpt lat="47.22205" lon="4.9306">
        <ele>463.826</ele>
        <time>2012-11-16T10:25:24Z</time>
      </trkpt>
      <trkpt lat="47.22203" lon="4.93067">
        <ele>463.511</ele>
        <time>2012-11-16T10:25:35Z</time>
      </trkpt>
      <trkpt lat="47.22195" lon="4.93083">
        <ele>464.789</ele>
        <time>2012-11-16T10:25:46Z</time>
      </trkpt>
      <trkpt lat="47.22192" lon="4.93093">
        <ele>468.37</ele>
        <time>2012-11-16T10:25:57Z</time>
      </trkpt>
      <trkpt lat="47.2219" lon="4.93097">
        <ele>468.526</ele>
        <time>2012-11-16T10:26:08Z</time>
      </trkpt>
      <trkpt lat="47.2219" lon="4.93097">
        <ele>467.856</ele>
        <time>2012-11-16T10:26:19Z</time>
      </trkpt>
      <trkpt lat="47.2219" lon="4.93098">
        <ele>467.752</ele>
        <time>2012-11-16T10:26:30Z</time>
      </trkpt>
      <trkpt lat="47.2219" lon="4.93098">
        <ele>467.834</ele>
        <time>2012-11-16T10:26:41Z</time>
      </trkpt>
      <trkpt lat="47.2219" lon="4.93098">
        <ele>467.834</ele>
        <time>2012-11-16T10:26:52Z</time>
      </trkpt>
      <trkpt lat="47.2219" lon="4.93098">
        <ele>467.834</ele>
        <time>2012-11-16T10:27:03Z</time>
      </trkpt>
      <trkpt lat="47.22188" lon="4.931">
        <ele>468.465</ele>
        <time>2012-11-16T10:27:14Z</time>
      </trkpt>
      <trkpt lat="47.2219" lon="4.93102">
        <ele>468.347</ele>
        <time>2012-11-16T10:27:25Z</time>
      </trkpt>
      <trkpt lat="47.2219" lon="4.93103">
        <ele>466.611</ele>
        <time>2012-11-16T10:27:36Z</time>
      </trkpt>
      <trkpt lat="47.2219" lon="4.93103">
        <ele>467.14</ele>
        <time>2012-11-16T10:27:47Z</time>
      </trkpt>
      <trkpt lat="47.2219" lon="4.9312">
        <ele>473.009</ele>
        <time>2012-11-16T10:27:58Z</time>
      </trkpt>
      <trkpt lat="47.2219" lon="4.93142">
        <ele>471.023</ele>
        <time>2012-11-16T10:28:09Z</time>
      </trkpt>
      <trkpt lat="47.22185" lon="4.9316">
        <ele>471.444</ele>
        <time>2012-11-16T10:28:20Z</time>
      </trkpt>
      <trkpt lat="47.2218" lon="4.9317">
        <ele>465.458</ele>
        <time>2012-11-16T10:28:31Z</time>
      </trkpt>
      <trkpt lat="47.2218" lon="4.9319">
        <ele>462.823</ele>
        <time>2012-11-16T10:28:42Z</time>
      </trkpt>
      <trkpt lat="47.22178" lon="4.93207">
        <ele>461.034</ele>
        <time>2012-11-16T10:28:53Z</time>
      </trkpt>
      <trkpt lat="47.22177" lon="4.93218">
        <ele>459.146</ele>
        <time>2012-11-16T10:29:04Z</time>
      </trkpt>
      <trkpt lat="47.2218" lon="4.93237">
        <ele>460.004</ele>
        <time>2012-11-16T10:29:15Z</time>
      </trkpt>
      <trkpt lat="47.22173" lon="4.93255">
        <ele>462.38</ele>
        <time>2012-11-16T10:29:26Z</time>
      </trkpt>
      <trkpt lat="47.22172" lon="4.93258">
        <ele>461.904</ele>
        <time>2012-11-16T10:29:37Z</time>
      </trkpt>
      <trkpt lat="47.2217" lon="4.93278">
        <ele>462.089</ele>
        <time>2012-11-16T10:29:48Z</time>
      </trkpt>
      <trkpt lat="47.2216" lon="4.93295">
        <ele>464.347</ele>
        <time>2012-11-16T10:29:59Z</time>
      </trkpt>
      <trkpt lat="47.22158" lon="4.93317">
        <ele>465.367</ele>
        <time>2012-11-16T10:30:10Z</time>
      </trkpt>
      <trkpt lat="47.22157" lon="4.93332">
        <ele>466.658</ele>
        <time>2012-11-16T10:30:21Z</time>
      </trkpt>
      <trkpt lat="47.22147" lon="4.93342">
        <ele>466.639</ele>
        <time>2012-11-16T10:30:32Z</time>
      </trkpt>
      <trkpt lat="47.2214" lon="4.93355">
        <ele>468.43</ele>
        <time>2012-11-16T10:30:43Z</time>
      </trkpt>
      <trkpt lat="47.22132" lon="4.93363">
        <ele>470.88</ele>
        <time>2012-11-16T10:30:54Z</time>
      </trkpt>
      <trkpt lat="47.22123" lon="4.93375">
        <ele>471.039</ele>
        <time>2012-11-16T10:31:05Z</time>
      </trkpt>
      <trkpt lat="47.22108" lon="4.93387">
        <ele>472.257</ele>
        <time>2012-11-16T10:31:16Z</time>
      </trkpt>
      <trkpt lat="47.221" lon="4.93398">
        <ele>473.465</ele>
        <time>2012-11-16T10:31:27Z</time>
      </trkpt>
      <trkpt lat="47.22092" lon="4.93417">
        <ele>476.311</ele>
        <time>2012-11-16T10:31:38Z</time>
      </trkpt>
      <trkpt lat="47.22085" lon="4.93428">
        <ele>475.26</ele>
        <time>2012-11-16T10:31:49Z</time>
      </trkpt>
      <trkpt lat="47.2208" lon="4.93438">
        <ele>474.282</ele>
        <time>2012-11-16T10:32:00Z</time>
      </trkpt>
      <trkpt lat="47.2207" lon="4.93447">
        <ele>471.838</ele>
        <time>2012-11-16T10:32:11Z</time>
      </trkpt>
      <trkpt lat="47.22065" lon="4.93453">
        <ele>470.966</ele>
        <time>2012-11-16T10:32:22Z</time>
      </trkpt>
      <trkpt lat="47.22055" lon="4.93465">
        <ele>473.444</ele>
        <time>2012-11-16T10:32:33Z</time>
      </trkpt>
      <trkpt lat="47.22037" lon="4.93477">
        <ele>475.247</ele>
        <time>2012-11-16T10:32:44Z</time>
      </trkpt>
      <trkpt lat="47.2203" lon="4.9349">
        <ele>473.658</ele>
        <time>2012-11-16T10:32:55Z</time>
      </trkpt>
      <trkpt lat="47.22025" lon="4.93502">
        <ele>474.841</ele>
        <time>2012-11-16T10:33:06Z</time>
      </trkpt>
      <trkpt lat="47.22015" lon="4.93513">
        <ele>477.204</ele>
        <time>2012-11-16T10:33:17Z</time>
      </trkpt>
      <trkpt lat="47.21998" lon="4.93527">
        <ele>479.28</ele>
        <time>2012-11-16T10:33:28Z</time>
      </trkpt>
      <trkpt lat="47.2198" lon="4.93547">
        <ele>479.259</ele>
        <time>2012-11-16T10:33:39Z</time>
      </trkpt>
      <trkpt lat="47.21963" lon="4.93568">
        <ele>481.139</ele>
        <time>2012-11-16T10:33:50Z</time>
      </trkpt>
      <trkpt lat="47.21947" lon="4.9358">
        <ele>480.901</ele>
        <time>2012-11-16T10:34:01Z</time>
      </trkpt>
      <trkpt lat="47.21938" lon="4.93587">
        <ele>480.242</ele>
        <time>2012-11-16T10:34:12Z</time>
      </trkpt>
      <trkpt lat="47.2193" lon="4.93602">
        <ele>480.797</ele>
        <time>2012-11-16T10:34:23Z</time>
      </trkpt>
      <trkpt lat="47.21923" lon="4.9362">
        <ele>482.037</ele>
        <time>2012-11-16T10:34:34Z</time>
      </trkpt>
      <trkpt lat="47.21912" lon="4.9363">
        <ele>483.71</ele>
        <time>2012-11-16T10:34:45Z</time>
      </trkpt>
      <trkpt lat="47.21895" lon="4.93647">
        <ele>483.389</ele>
        <time>2012-11-16T10:34:56Z</time>
      </trkpt>
      <trkpt lat="47.21888" lon="4.93657">
        <ele>482.088</ele>
        <time>2012-11-16T10:35:07Z</time>
      </trkpt>
      <trkpt lat="47.21882" lon="4.93672">
        <ele>481.924</ele>
        <time>2012-11-16T10:35:18Z</time>
      </trkpt>
      <trkpt lat="47.21877" lon="4.93682">
        <ele>482.25</ele>
        <time>2012-11-16T10:35:29Z</time>
      </trkpt>
      <trkpt lat="47.2186" lon="4.93707">
        <ele>481.175</ele>
        <time>2012-11-16T10:35:40Z</time>
      </trkpt>
      <trkpt lat="47.2185" lon="4.93725">
        <ele>479.346</ele>
        <time>2012-11-16T10:35:51Z</time>
      </trkpt>
      <trkpt lat="47.21843" lon="4.93743">
        <ele>477.237</ele>
        <time>2012-11-16T10:36:02Z</time>
      </trkpt>
      <trkpt lat="47.21842" lon="4.93765">
        <ele>474.765</ele>
        <time>2012-11-16T10:36:13Z</time>
      </trkpt>
      <trkpt lat="47.21842" lon="4.93775">
        <ele>472.089</ele>
        <time>2012-11-16T10:36:24Z</time>
      </trkpt>
      <trkpt lat="47.2184" lon="4.93797">
        <ele>467.24</ele>
        <time>2012-11-16T10:36:35Z</time>
      </trkpt>
      <trkpt lat="47.21843" lon="4.93805">
        <ele>463.377</ele>
        <time>2012-11-16T10:36:46Z</time>
      </trkpt>
      <trkpt lat="47.2184" lon="4.93815">
        <ele>460.064</ele>
        <time>2012-11-16T10:36:57Z</time>
      </trkpt>
      <trkpt lat="47.21832" lon="4.93823">
        <ele>456.113</ele>
        <time>2012-11-16T10:37:08Z</time>
      </trkpt>
      <trkpt lat="47.21827" lon="4.93828">
        <ele>455.348</ele>
        <time>2012-11-16T10:37:19Z</time>
      </trkpt>
      <trkpt lat="47.21812" lon="4.9383">
        <ele>454.599</ele>
        <time>2012-11-16T10:37:30Z</time>
      </trkpt>
      <trkpt lat="47.21797" lon="4.93828">
        <ele>451.495</ele>
        <time>2012-11-16T10:37:41Z</time>
      </trkpt>
      <trkpt lat="47.2178" lon="4.93827">
        <ele>451.591</ele>
        <time>2012-11-16T10:37:52Z</time>
      </trkpt>
      <trkpt lat="47.21758" lon="4.93822">
        <ele>451.508</ele>
        <time>2012-11-16T10:38:03Z</time>
      </trkpt>
      <trkpt lat="47.21743" lon="4.93817">
        <ele>453.569</ele>
        <time>2012-11-16T10:38:14Z</time>
      </trkpt>
      <trkpt lat="47.21725" lon="4.93802">
        <ele>451.511</ele>
        <time>2012-11-16T10:38:25Z</time>
      </trkpt>
      <trkpt lat="47.21712" lon="4.93793">
        <ele>449.293</ele>
        <time>2012-11-16T10:38:36Z</time>
      </trkpt>
      <trkpt lat="47.21705" lon="4.93787">
        <ele>449.93</ele>
        <time>2012-11-16T10:38:47Z</time>
      </trkpt>
      <trkpt lat="47.21705" lon="4.93787">
        <ele>450.118</ele>
        <time>2012-11-16T10:38:58Z</time>
      </trkpt>
      <trkpt lat="47.21702" lon="4.93783">
        <ele>450.285</ele>
        <time>2012-11-16T10:39:09Z</time>
      </trkpt>
      <trkpt lat="47.21702" lon="4.93783">
        <ele>450.946</ele>
        <time>2012-11-16T10:39:20Z</time>
      </trkpt>
      <trkpt lat="47.21702" lon="4.93783">
        <ele>450.946</ele>
        <time>2012-11-16T10:39:31Z</time>
      </trkpt>
      <trkpt lat="47.21702" lon="4.93783">
        <ele>450.238</ele>
        <time>2012-11-16T10:39:42Z</time>
      </trkpt>
      <trkpt lat="47.217" lon="4.93782">
        <ele>449.75</ele>
        <time>2012-11-16T10:39:53Z</time>
      </trkpt>
      <trkpt lat="47.217" lon="4.93782">
        <ele>449.75</ele>
        <time>2012-11-16T10:40:04Z</time>
      </trkpt>
      <trkpt lat="47.217" lon="4.93782">
        <ele>449.75</ele>
        <time>2012-11-16T10:40:15Z</time>
      </trkpt>
      <trkpt lat="47.217" lon="4.93782">
        <ele>449.75</ele>
        <time>2012-11-16T10:40:26Z</time>
      </trkpt>
      <trkpt lat="47.217" lon="4.93782">
        <ele>449.496</ele>
        <time>2012-11-16T10:40:37Z</time>
      </trkpt>
      <trkpt lat="47.21695" lon="4.93782">
        <ele>449.687</ele>
        <time>2012-11-16T10:40:48Z</time>
      </trkpt>
      <trkpt lat="47.2169" lon="4.93783">
        <ele>450.879</ele>
        <time>2012-11-16T10:40:59Z</time>
      </trkpt>
      <trkpt lat="47.2169" lon="4.93787">
        <ele>452.315</ele>
        <time>2012-11-16T10:41:10Z</time>
      </trkpt>
      <trkpt lat="47.21685" lon="4.93797">
        <ele>453.838</ele>
        <time>2012-11-16T10:41:21Z</time>
      </trkpt>
      <trkpt lat="47.21678" lon="4.93803">
        <ele>455.179</ele>
        <time>2012-11-16T10:41:32Z</time>
      </trkpt>
      <trkpt lat="47.21675" lon="4.93817">
        <ele>453.809</ele>
        <time>2012-11-16T10:41:43Z</time>
      </trkpt>
      <trkpt lat="47.21678" lon="4.93832">
        <ele>451.419</ele>
        <time>2012-11-16T10:41:54Z</time>
      </trkpt>
      <trkpt lat="47.21685" lon="4.93848">
        <ele>449.528</ele>
        <time>2012-11-16T10:42:05Z</time>
      </trkpt>
      <trkpt lat="47.2169" lon="4.93855">
        <ele>449.401</ele>
        <time>2012-11-16T10:42:16Z</time>
      </trkpt>
      <trkpt lat="47.21695" lon="4.93863">
        <ele>448.19</ele>
        <time>2012-11-16T10:42:27Z</time>
      </trkpt>
      <trkpt lat="47.21698" lon="4.9387">
        <ele>450.016</ele>
        <time>2012-11-16T10:42:38Z</time>
      </trkpt>
      <trkpt lat="47.21707" lon="4.93882">
        <ele>451.517</ele>
        <time>2012-11-16T10:42:49Z</time>
      </trkpt>
      <trkpt lat="47.21713" lon="4.9389">
        <ele>452.826</ele>
        <time>2012-11-16T10:43:00Z</time>
      </trkpt>
      <trkpt lat="47.21728" lon="4.93902">
        <ele>452.872</ele>
        <time>2012-11-16T10:43:11Z</time>
      </trkpt>
      <trkpt lat="47.21742" lon="4.93917">
        <ele>452.006</ele>
        <time>2012-11-16T10:43:22Z</time>
      </trkpt>
      <trkpt lat="47.21747" lon="4.9392">
        <ele>451.506</ele>
        <time>2012-11-16T10:43:33Z</time>
      </trkpt>
      <trkpt lat="47.2176" lon="4.93937">
        <ele>449.561</ele>
        <time>2012-11-16T10:43:44Z</time>
      </trkpt>
      <trkpt lat="47.21765" lon="4.93938">
        <ele>449.434</ele>
        <time>2012-11-16T10:43:55Z</time>
      </trkpt>
      <trkpt lat="47.21773" lon="4.93945">
        <ele>448.051</ele>
        <time>2012-11-16T10:44:06Z</time>
      </trkpt>
      <trkpt lat="47.21773" lon="4.93947">
        <ele>447.692</ele>
        <time>2012-11-16T10:44:17Z</time>
      </trkpt>
      <trkpt lat="47.21773" lon="4.93947">
        <ele>447.692</ele>
        <time>2012-11-16T10:44:28Z</time>
      </trkpt>
      <trkpt lat="47.21775" lon="4.93948">
        <ele>446.602</ele>
        <time>2012-11-16T10:44:39Z</time>
      </trkpt>
      <trkpt lat="47.21777" lon="4.9395">
        <ele>446.351</ele>
        <time>2012-11-16T10:44:50Z</time>
      </trkpt>
      <trkpt lat="47.21778" lon="4.93952">
        <ele>446.492</ele>
        <time>2012-11-16T10:45:01Z</time>
      </trkpt>
      <trkpt lat="47.2178" lon="4.93953">
        <ele>444.257</ele>
        <time>2012-11-16T10:45:12Z</time>
      </trkpt>
      <trkpt lat="47.21782" lon="4.93957">
        <ele>442.75</ele>
        <time>2012-11-16T10:45:23Z</time>
      </trkpt>
      <trkpt lat="47.21783" lon="4.93957">
        <ele>441.492</ele>
        <time>2012-11-16T10:45:34Z</time>
      </trkpt>
      <trkpt lat="47.21785" lon="4.93958">
        <ele>442.441</ele>
        <time>2012-11-16T10:45:45Z</time>
      </trkpt>
      <trkpt lat="47.21788" lon="4.93962">
        <ele>442.306</ele>
        <time>2012-11-16T10:45:56Z</time>
      </trkpt>
      <trkpt lat="47.21788" lon="4.93962">
        <ele>442.333</ele>
        <time>2012-11-16T10:46:07Z</time>
      </trkpt>
      <trkpt lat="47.2179" lon="4.93962">
        <ele>440.074</ele>
        <time>2012-11-16T10:46:18Z</time>
      </trkpt>
      <trkpt lat="47.21798" lon="4.93967">
        <ele>436.656</ele>
        <time>2012-11-16T10:46:29Z</time>
      </trkpt>
      <trkpt lat="47.21802" lon="4.93968">
        <ele>434.049</ele>
        <time>2012-11-16T10:46:40Z</time>
      </trkpt>
      <trkpt lat="47.21805" lon="4.9397">
        <ele>434.222</ele>
        <time>2012-11-16T10:46:51Z</time>
      </trkpt>
      <trkpt lat="47.21812" lon="4.93973">
        <ele>433.869</ele>
        <time>2012-11-16T10:47:02Z</time>
      </trkpt>
      <trkpt lat="47.2182" lon="4.93982">
        <ele>435.747</ele>
        <time>2012-11-16T10:47:13Z</time>
      </trkpt>
      <trkpt lat="47.21823" lon="4.93983">
        <ele>438.005</ele>
        <time>2012-11-16T10:47:24Z</time>
      </trkpt>
      <trkpt lat="47.21828" lon="4.93985">
        <ele>435.682</ele>
        <time>2012-11-16T10:47:35Z</time>
      </trkpt>
      <trkpt lat="47.21837" lon="4.93988">
        <ele>435.367</ele>
        <time>2012-11-16T10:47:46Z</time>
      </trkpt>
      <trkpt lat="47.21842" lon="4.93992">
        <ele>432.71</ele>
        <time>2012-11-16T10:47:57Z</time>
      </trkpt>
      <trkpt lat="47.21842" lon="4.9399">
        <ele>430.735</ele>
        <time>2012-11-16T10:48:08Z</time>
      </trkpt>
      <trkpt lat="47.21843" lon="4.9399">
        <ele>429.131</ele>
        <time>2012-11-16T10:48:19Z</time>
      </trkpt>
      <trkpt lat="47.21843" lon="4.9399">
        <ele>427.538</ele>
        <time>2012-11-16T10:48:30Z</time>
      </trkpt>
      <trkpt lat="47.21843" lon="4.9399">
        <ele>427.538</ele>
        <time>2012-11-16T10:48:41Z</time>
      </trkpt>
      <trkpt lat="47.21845" lon="4.9399">
        <ele>426.044</ele>
        <time>2012-11-16T10:48:52Z</time>
      </trkpt>
      <trkpt lat="47.21847" lon="4.9399">
        <ele>426.472</ele>
        <time>2012-11-16T10:49:03Z</time>
      </trkpt>
      <trkpt lat="47.21858" lon="4.9399">
        <ele>424.515</ele>
        <time>2012-11-16T10:49:14Z</time>
      </trkpt>
      <trkpt lat="47.21863" lon="4.9399">
        <ele>423.063</ele>
        <time>2012-11-16T10:49:25Z</time>
      </trkpt>
      <trkpt lat="47.21868" lon="4.93988">
        <ele>421.954</ele>
        <time>2012-11-16T10:49:36Z</time>
      </trkpt>
      <trkpt lat="47.21878" lon="4.93988">
        <ele>426.22</ele>
        <time>2012-11-16T10:49:47Z</time>
      </trkpt>
      <trkpt lat="47.21882" lon="4.93987">
        <ele>425.792</ele>
        <time>2012-11-16T10:49:58Z</time>
      </trkpt>
      <trkpt lat="47.21887" lon="4.93983">
        <ele>422.682</ele>
        <time>2012-11-16T10:50:09Z</time>
      </trkpt>
      <trkpt lat="47.21893" lon="4.93978">
        <ele>424.463</ele>
        <time>2012-11-16T10:50:20Z</time>
      </trkpt>
      <trkpt lat="47.21893" lon="4.93978">
        <ele>424.495</ele>
        <time>2012-11-16T10:50:31Z</time>
      </trkpt>
      <trkpt lat="47.21897" lon="4.93977">
        <ele>425.694</ele>
        <time>2012-11-16T10:50:42Z</time>
      </trkpt>
      <trkpt lat="47.21898" lon="4.93972">
        <ele>421.828</ele>
        <time>2012-11-16T10:50:53Z</time>
      </trkpt>
      <trkpt lat="47.219" lon="4.93972">
        <ele>422.175</ele>
        <time>2012-11-16T10:51:04Z</time>
      </trkpt>
      <trkpt lat="47.219" lon="4.93972">
        <ele>422.175</ele>
        <time>2012-11-16T10:51:15Z</time>
      </trkpt>
      <trkpt lat="47.21915" lon="4.93962">
        <ele>406.927</ele>
        <time>2012-11-16T10:51:26Z</time>
      </trkpt>
      <trkpt lat="47.21923" lon="4.93957">
        <ele>393.271</ele>
        <time>2012-11-16T10:51:37Z</time>
      </trkpt>
      <trkpt lat="47.21928" lon="4.9395">
        <ele>386.154</ele>
        <time>2012-11-16T10:51:48Z</time>
      </trkpt>
      <trkpt lat="47.21932" lon="4.93955">
        <ele>383.823</ele>
        <time>2012-11-16T10:51:59Z</time>
      </trkpt>
      <trkpt lat="47.21938" lon="4.93963">
        <ele>381.69</ele>
        <time>2012-11-16T10:52:10Z</time>
      </trkpt>
      <trkpt lat="47.21938" lon="4.93968">
        <ele>381.459</ele>
        <time>2012-11-16T10:52:21Z</time>
      </trkpt>
      <trkpt lat="47.2194" lon="4.9398">
        <ele>381.429</ele>
        <time>2012-11-16T10:52:32Z</time>
      </trkpt>
      <trkpt lat="47.21948" lon="4.93997">
        <ele>381.853</ele>
        <time>2012-11-16T10:52:43Z</time>
      </trkpt>
      <trkpt lat="47.21957" lon="4.94013">
        <ele>380.172</ele>
        <time>2012-11-16T10:52:54Z</time>
      </trkpt>
      <trkpt lat="47.21967" lon="4.94032">
        <ele>382.712</ele>
        <time>2012-11-16T10:53:05Z</time>
      </trkpt>
      <trkpt lat="47.21975" lon="4.94053">
        <ele>381.953</ele>
        <time>2012-11-16T10:53:16Z</time>
      </trkpt>
      <trkpt lat="47.21985" lon="4.94078">
        <ele>377.203</ele>
        <time>2012-11-16T10:53:27Z</time>
      </trkpt>
      <trkpt lat="47.21993" lon="4.941">
        <ele>374.861</ele>
        <time>2012-11-16T10:53:38Z</time>
      </trkpt>
      <trkpt lat="47.22" lon="4.94117">
        <ele>372.87</ele>
        <time>2012-11-16T10:53:49Z</time>
      </trkpt>
      <trkpt lat="47.22017" lon="4.94152">
        <ele>367.725</ele>
        <time>2012-11-16T10:54:00Z</time>
      </trkpt>
      <trkpt lat="47.22027" lon="4.94175">
        <ele>368.054</ele>
        <time>2012-11-16T10:54:11Z</time>
      </trkpt>
      <trkpt lat="47.2203" lon="4.94185">
        <ele>370.563</ele>
        <time>2012-11-16T10:54:22Z</time>
      </trkpt>
      <trkpt lat="47.22043" lon="4.942">
        <ele>373.002</ele>
        <time>2012-11-16T10:54:33Z</time>
      </trkpt>
      <trkpt lat="47.2205" lon="4.94218">
        <ele>373.971</ele>
        <time>2012-11-16T10:54:44Z</time>
      </trkpt>
      <trkpt lat="47.22057" lon="4.94228">
        <ele>375.658</ele>
        <time>2012-11-16T10:54:55Z</time>
      </trkpt>
      <trkpt lat="47.22065" lon="4.94243">
        <ele>378.291</ele>
        <time>2012-11-16T10:55:06Z</time>
      </trkpt>
      <trkpt lat="47.22068" lon="4.94257">
        <ele>378.513</ele>
        <time>2012-11-16T10:55:17Z</time>
      </trkpt>
      <trkpt lat="47.22068" lon="4.94268">
        <ele>379.834</ele>
        <time>2012-11-16T10:55:28Z</time>
      </trkpt>
      <trkpt lat="47.22068" lon="4.94282">
        <ele>379.835</ele>
        <time>2012-11-16T10:55:39Z</time>
      </trkpt>
      <trkpt lat="47.22073" lon="4.94305">
        <ele>379.088</ele>
        <time>2012-11-16T10:55:50Z</time>
      </trkpt>
      <trkpt lat="47.22077" lon="4.94315">
        <ele>380.023</ele>
        <time>2012-11-16T10:56:01Z</time>
      </trkpt>
      <trkpt lat="47.22082" lon="4.94335">
        <ele>381.413</ele>
        <time>2012-11-16T10:56:12Z</time>
      </trkpt>
      <trkpt lat="47.22083" lon="4.94352">
        <ele>380.558</ele>
        <time>2012-11-16T10:56:23Z</time>
      </trkpt>
      <trkpt lat="47.22085" lon="4.9437">
        <ele>383.01</ele>
        <time>2012-11-16T10:56:34Z</time>
      </trkpt>
      <trkpt lat="47.2209" lon="4.94397">
        <ele>382.179</ele>
        <time>2012-11-16T10:56:45Z</time>
      </trkpt>
      <trkpt lat="47.22092" lon="4.94417">
        <ele>379.195</ele>
        <time>2012-11-16T10:56:56Z</time>
      </trkpt>
      <trkpt lat="47.22092" lon="4.94438">
        <ele>380.159</ele>
        <time>2012-11-16T10:57:07Z</time>
      </trkpt>
      <trkpt lat="47.22097" lon="4.94457">
        <ele>380.587</ele>
        <time>2012-11-16T10:57:18Z</time>
      </trkpt>
      <trkpt lat="47.221" lon="4.94478">
        <ele>381.451</ele>
        <time>2012-11-16T10:57:29Z</time>
      </trkpt>
      <trkpt lat="47.221" lon="4.94495">
        <ele>380.652</ele>
        <time>2012-11-16T10:57:40Z</time>
      </trkpt>
      <trkpt lat="47.22107" lon="4.94523">
        <ele>376.226</ele>
        <time>2012-11-16T10:57:51Z</time>
      </trkpt>
      <trkpt lat="47.2211" lon="4.94538">
        <ele>374.061</ele>
        <time>2012-11-16T10:58:02Z</time>
      </trkpt>
      <trkpt lat="47.22113" lon="4.94545">
        <ele>373.327</ele>
        <time>2012-11-16T10:58:13Z</time>
      </trkpt>
      <trkpt lat="47.22115" lon="4.94553">
        <ele>372.777</ele>
        <time>2012-11-16T10:58:24Z</time>
      </trkpt>
      <trkpt lat="47.22117" lon="4.9457">
        <ele>374.414</ele>
        <time>2012-11-16T10:58:35Z</time>
      </trkpt>
      <trkpt lat="47.22122" lon="4.94585">
        <ele>375.294</ele>
        <time>2012-11-16T10:58:46Z</time>
      </trkpt>
      <trkpt lat="47.22125" lon="4.94592">
        <ele>375.341</ele>
        <time>2012-11-16T10:58:57Z</time>
      </trkpt>
      <trkpt lat="47.22133" lon="4.94618">
        <ele>374.152</ele>
        <time>2012-11-16T10:59:08Z</time>
      </trkpt>
      <trkpt lat="47.22142" lon="4.94642">
        <ele>372.338</ele>
        <time>2012-11-16T10:59:19Z</time>
      </trkpt>
      <trkpt lat="47.22145" lon="4.94652">
        <ele>372.913</ele>
        <time>2012-11-16T10:59:30Z</time>
      </trkpt>
      <trkpt lat="47.22152" lon="4.94667">
        <ele>371.025</ele>
        <time>2012-11-16T10:59:41Z</time>
      </trkpt>
      <trkpt lat="47.22163" lon="4.94703">
        <ele>370.553</ele>
        <time>2012-11-16T10:59:52Z</time>
      </trkpt>
      <trkpt lat="47.22165" lon="4.9471">
        <ele>370.656</ele>
        <time>2012-11-16T11:00:03Z</time>
      </trkpt>
      <trkpt lat="47.2217" lon="4.94725">
        <ele>369.604</ele>
        <time>2012-11-16T11:00:14Z</time>
      </trkpt>
      <trkpt lat="47.22173" lon="4.94742">
        <ele>370.641</ele>
        <time>2012-11-16T11:00:25Z</time>
      </trkpt>
      <trkpt lat="47.22178" lon="4.94757">
        <ele>370.076</ele>
        <time>2012-11-16T11:00:36Z</time>
      </trkpt>
      <trkpt lat="47.22183" lon="4.94775">
        <ele>374.098</ele>
        <time>2012-11-16T11:00:47Z</time>
      </trkpt>
      <trkpt lat="47.22185" lon="4.94793">
        <ele>374.596</ele>
        <time>2012-11-16T11:00:58Z</time>
      </trkpt>
      <trkpt lat="47.22185" lon="4.94797">
        <ele>374.355</ele>
        <time>2012-11-16T11:01:09Z</time>
      </trkpt>
      <trkpt lat="47.22188" lon="4.94815">
        <ele>375.792</ele>
        <time>2012-11-16T11:01:20Z</time>
      </trkpt>
      <trkpt lat="47.22192" lon="4.9485">
        <ele>376.469</ele>
        <time>2012-11-16T11:01:31Z</time>
      </trkpt>
      <trkpt lat="47.22197" lon="4.94867">
        <ele>374.12</ele>
        <time>2012-11-16T11:01:42Z</time>
      </trkpt>
      <trkpt lat="47.22198" lon="4.94877">
        <ele>374.605</ele>
        <time>2012-11-16T11:01:53Z</time>
      </trkpt>
      <trkpt lat="47.22202" lon="4.94895">
        <ele>372.667</ele>
        <time>2012-11-16T11:02:04Z</time>
      </trkpt>
      <trkpt lat="47.22212" lon="4.9492">
        <ele>366.079</ele>
        <time>2012-11-16T11:02:15Z</time>
      </trkpt>
      <trkpt lat="47.22213" lon="4.9493">
        <ele>363.857</ele>
        <time>2012-11-16T11:02:26Z</time>
      </trkpt>
      <trkpt lat="47.22217" lon="4.9494">
        <ele>362.429</ele>
        <time>2012-11-16T11:02:37Z</time>
      </trkpt>
      <trkpt lat="47.22218" lon="4.9495">
        <ele>360.948</ele>
        <time>2012-11-16T11:02:48Z</time>
      </trkpt>
      <trkpt lat="47.22223" lon="4.9497">
        <ele>358.093</ele>
        <time>2012-11-16T11:02:59Z</time>
      </trkpt>
      <trkpt lat="47.22228" lon="4.94992">
        <ele>355.723</ele>
        <time>2012-11-16T11:03:10Z</time>
      </trkpt>
      <trkpt lat="47.22237" lon="4.95015">
        <ele>353.396</ele>
        <time>2012-11-16T11:03:21Z</time>
      </trkpt>
      <trkpt lat="47.22238" lon="4.95025">
        <ele>352.594</ele>
        <time>2012-11-16T11:03:32Z</time>
      </trkpt>
      <trkpt lat="47.2224" lon="4.95052">
        <ele>352.508</ele>
        <time>2012-11-16T11:03:43Z</time>
      </trkpt>
      <trkpt lat="47.22243" lon="4.95073">
        <ele>352.991</ele>
        <time>2012-11-16T11:03:54Z</time>
      </trkpt>
      <trkpt lat="47.22248" lon="4.95097">
        <ele>318.7</ele>
        <time>2012-11-16T11:04:05Z</time>
      </trkpt>
      <trkpt lat="47.22253" lon="4.95117">
        <ele>349.477</ele>
        <time>2012-11-16T11:04:16Z</time>
      </trkpt>
      <trkpt lat="47.2226" lon="4.95145">
        <ele>352.577</ele>
        <time>2012-11-16T11:04:27Z</time>
      </trkpt>
      <trkpt lat="47.22262" lon="4.95155">
        <ele>353.642</ele>
        <time>2012-11-16T11:04:38Z</time>
      </trkpt>
      <trkpt lat="47.22263" lon="4.95175">
        <ele>352.7</ele>
        <time>2012-11-16T11:04:49Z</time>
      </trkpt>
      <trkpt lat="47.22267" lon="4.952">
        <ele>353.031</ele>
        <time>2012-11-16T11:05:00Z</time>
      </trkpt>
      <trkpt lat="47.22268" lon="4.95212">
        <ele>351.777</ele>
        <time>2012-11-16T11:05:11Z</time>
      </trkpt>
      <trkpt lat="47.22277" lon="4.95233">
        <ele>346.722</ele>
        <time>2012-11-16T11:05:22Z</time>
      </trkpt>
      <trkpt lat="47.22283" lon="4.95255">
        <ele>340.929</ele>
        <time>2012-11-16T11:05:33Z</time>
      </trkpt>
      <trkpt lat="47.22288" lon="4.95275">
        <ele>333.135</ele>
        <time>2012-11-16T11:05:44Z</time>
      </trkpt>
      <trkpt lat="47.22298" lon="4.95312">
        <ele>326.424</ele>
        <time>2012-11-16T11:05:55Z</time>
      </trkpt>
      <trkpt lat="47.22308" lon="4.9534">
        <ele>326.748</ele>
        <time>2012-11-16T11:06:06Z</time>
      </trkpt>
      <trkpt lat="47.2231" lon="4.95345">
        <ele>328.79</ele>
        <time>2012-11-16T11:06:17Z</time>
      </trkpt>
      <trkpt lat="47.22312" lon="4.95343">
        <ele>330.22</ele>
        <time>2012-11-16T11:06:28Z</time>
      </trkpt>
      <trkpt lat="47.2231" lon="4.95342">
        <ele>331.934</ele>
        <time>2012-11-16T11:06:39Z</time>
      </trkpt>
      <trkpt lat="47.22312" lon="4.95337">
        <ele>328.053</ele>
        <time>2012-11-16T11:06:50Z</time>
      </trkpt>
      <trkpt lat="47.22315" lon="4.95335">
        <ele>326.198</ele>
        <time>2012-11-16T11:07:01Z</time>
      </trkpt>
      <trkpt lat="47.22315" lon="4.95335">
        <ele>311.4</ele>
        <time>2012-11-16T11:07:12Z</time>
      </trkpt>
      <trkpt lat="47.22315" lon="4.95333">
        <ele>311.3</ele>
        <time>2012-11-16T11:07:23Z</time>
      </trkpt>
      <trkpt lat="47.22317" lon="4.95332">
        <ele>324.571</ele>
        <time>2012-11-16T11:07:34Z</time>
      </trkpt>
      <trkpt lat="47.22322" lon="4.9533">
        <ele>325.026</ele>
        <time>2012-11-16T11:07:45Z</time>
      </trkpt>
      <trkpt lat="47.22327" lon="4.95337">
        <ele>324.542</ele>
        <time>2012-11-16T11:07:56Z</time>
      </trkpt>
      <trkpt lat="47.2233" lon="4.95347">
        <ele>324.227</ele>
        <time>2012-11-16T11:08:07Z</time>
      </trkpt>
      <trkpt lat="47.22333" lon="4.95358">
        <ele>323.834</ele>
        <time>2012-11-16T11:08:18Z</time>
      </trkpt>
      <trkpt lat="47.22337" lon="4.95368">
        <ele>325.574</ele>
        <time>2012-11-16T11:08:29Z</time>
      </trkpt>
      <trkpt lat="47.22342" lon="4.95392">
        <ele>326.653</ele>
        <time>2012-11-16T11:08:40Z</time>
      </trkpt>
      <trkpt lat="47.22347" lon="4.95405">
        <ele>306.1</ele>
        <time>2012-11-16T11:08:51Z</time>
      </trkpt>
      <trkpt lat="47.2235" lon="4.9542">
        <ele>328.206</ele>
        <time>2012-11-16T11:09:02Z</time>
      </trkpt>
      <trkpt lat="47.22353" lon="4.9544">
        <ele>327.576</ele>
        <time>2012-11-16T11:09:13Z</time>
      </trkpt>
      <trkpt lat="47.22357" lon="4.95453">
        <ele>326.245</ele>
        <time>2012-11-16T11:09:24Z</time>
      </trkpt>
      <trkpt lat="47.22358" lon="4.95457">
        <ele>326.446</ele>
        <time>2012-11-16T11:09:35Z</time>
      </trkpt>
      <trkpt lat="47.22358" lon="4.95458">
        <ele>326.899</ele>
        <time>2012-11-16T11:09:46Z</time>
      </trkpt>
      <trkpt lat="47.22368" lon="4.95485">
        <ele>328.061</ele>
        <time>2012-11-16T11:09:57Z</time>
      </trkpt>
      <trkpt lat="47.22373" lon="4.95497">
        <ele>329.46</ele>
        <time>2012-11-16T11:10:08Z</time>
      </trkpt>
      <trkpt lat="47.22378" lon="4.95507">
        <ele>303.6</ele>
        <time>2012-11-16T11:10:19Z</time>
      </trkpt>
      <trkpt lat="47.22383" lon="4.95522">
        <ele>334.601</ele>
        <time>2012-11-16T11:10:30Z</time>
      </trkpt>
      <trkpt lat="47.22387" lon="4.95527">
        <ele>336.377</ele>
        <time>2012-11-16T11:10:41Z</time>
      </trkpt>
      <trkpt lat="47.22388" lon="4.95533">
        <ele>337.172</ele>
        <time>2012-11-16T11:10:52Z</time>
      </trkpt>
      <trkpt lat="47.2239" lon="4.95537">
        <ele>337.229</ele>
        <time>2012-11-16T11:11:03Z</time>
      </trkpt>
      <trkpt lat="47.2239" lon="4.95537">
        <ele>337.229</ele>
        <time>2012-11-16T11:11:14Z</time>
      </trkpt>
      <trkpt lat="47.2239" lon="4.95537">
        <ele>337.229</ele>
        <time>2012-11-16T11:11:25Z</time>
      </trkpt>
      <trkpt lat="47.2239" lon="4.95538">
        <ele>337.619</ele>
        <time>2012-11-16T11:11:36Z</time>
      </trkpt>
      <trkpt lat="47.2239" lon="4.95538">
        <ele>337.619</ele>
        <time>2012-11-16T11:11:47Z</time>
      </trkpt>
      <trkpt lat="47.22392" lon="4.95538">
        <ele>337.777</ele>
        <time>2012-11-16T11:11:58Z</time>
      </trkpt>
      <trkpt lat="47.22392" lon="4.95543">
        <ele>336.702</ele>
        <time>2012-11-16T11:12:09Z</time>
      </trkpt>
    </trkseg>
  </trk>
</gpx>